Tarialan, Mongolia
Current Conditions -  °F | °C
As of 4:30 PM on Monday 26 Jan 2015 (Local Time) from UIII Reporting Station
Clear Clear  
Wind Chill: 10°   Ceiling: Unl
Heat Index: 10°   Visibility: 6mi
Dew Point: -6°   Wind: 0mph
Humidity: 48%   Direction: NA
Pressure: 30.68"   Gusts: NA
Location:  49.57°N, 102°E
Report Text: UIII 260830Z 00000MPS CAVOK M12/M21 Q1039 NOSIG RMK QFE734/097830820350
Loading
Personal Weather Stations






























Interactive Weather Map New forecast layout! Learn more

10-Day Weather Forecast

Advertisements
Track Severe Weather on mobile